Time;durP1;ratioP1;P1;durP2;ratioP2;P2;SDS_P1;SDS_P2;PMS_P1;PMS_P2;Temp;Humidity;BMP_temperature;BMP_pressure;BME280_temperature;BME280_humidity;BME280_pressure;Samples;Min_cycle;Max_cycle;Signal;HPM_P1;HPM_P2
2021/01/09 00:00:11;;;;;;;31.85;16.58;;;0.70;99.90;;;;;;5035145;28;20060;-76
2021/01/09 00:02:38;;;;;;;30.45;18.05;;;0.60;99.90;;;;;;5024031;28;20037;-76
2021/01/09 00:05:04;;;;;;;35.67;17.30;;;0.70;99.90;;;;;;5014924;28;20513;-76
2021/01/09 00:07:33;;;;;;;32.95;18.52;;;0.70;99.90;;;;;;5015205;28;20025;-76
2021/01/09 00:10:00;;;;;;;31.88;18.33;;;0.70;99.90;;;;;;5015242;28;20493;-76
2021/01/09 00:12:26;;;;;;;29.27;16.52;;;0.70;99.90;;;;;;5019966;28;20030;-76
2021/01/09 00:14:51;;;;;;;33.63;17.48;;;0.70;99.90;;;;;;5034638;28;20053;-76
2021/01/09 00:17:17;;;;;;;27.38;16.23;;;0.80;99.90;;;;;;5034737;28;20029;-76
2021/01/09 00:19:43;;;;;;;27.83;15.57;;;0.70;99.90;;;;;;5034811;28;20126;-76
2021/01/09 00:22:08;;;;;;;30.98;16.40;;;0.70;99.90;;;;;;5024775;28;20129;-76
2021/01/09 00:24:35;;;;;;;28.77;16.90;;;0.70;99.90;;;;;;5014636;28;20058;-76
2021/01/09 00:27:01;;;;;;;30.27;17.00;;;0.80;99.90;;;;;;5013518;28;20029;-76
2021/01/09 00:29:26;;;;;;;29.30;17.52;;;0.70;99.90;;;;;;5014702;28;20022;-75
2021/01/09 00:31:53;;;;;;;29.25;16.70;;;0.70;99.90;;;;;;5019120;28;20104;-76
2021/01/09 00:34:20;;;;;;;24.92;14.98;;;0.70;99.90;;;;;;5033162;28;20393;-76
2021/01/09 00:36:50;;;;;;;24.88;14.25;;;0.60;99.90;;;;;;5034114;28;20021;-76
2021/01/09 00:39:15;;;;;;;26.33;15.32;;;0.70;99.90;;;;;;5034519;28;20026;-76
2021/01/09 00:41:41;;;;;;;27.30;15.82;;;0.70;99.90;;;;;;5033843;28;20033;-76
2021/01/09 00:44:07;;;;;;;29.98;16.85;;;0.70;99.90;;;;;;5014317;28;20084;-76
2021/01/09 00:46:34;;;;;;;27.65;16.13;;;0.70;99.90;;;;;;5014455;28;20049;-76
2021/01/09 00:48:59;;;;;;;23.45;14.30;;;0.60;99.90;;;;;;5014029;28;20018;-76
2021/01/09 00:51:25;;;;;;;25.85;14.77;;;0.70;99.90;;;;;;5014193;28;20026;-76
2021/01/09 00:53:50;;;;;;;23.60;13.73;;;0.70;99.90;;;;;;5014193;28;20037;-76
2021/01/09 00:56:16;;;;;;;23.67;13.70;;;0.70;99.90;;;;;;5012897;28;20455;-76
2021/01/09 00:58:44;;;;;;;26.45;14.50;;;0.70;99.90;;;;;;5014279;28;20108;-76
2021/01/09 01:01:10;;;;;;;23.65;14.90;;;0.60;99.90;;;;;;5013012;28;20029;-76
2021/01/09 01:03:37;;;;;;;22.75;14.27;;;0.60;99.90;;;;;;5032601;28;20029;-76
2021/01/09 01:06:04;;;;;;;27.42;15.07;;;0.60;99.90;;;;;;5033446;28;20022;-76
2021/01/09 01:08:29;;;;;;;24.30;15.70;;;0.60;99.90;;;;;;5033976;28;20030;-75
2021/01/09 01:10:55;;;;;;;23.80;13.95;;;0.60;99.90;;;;;;5032507;28;20025;-76
2021/01/09 01:13:21;;;;;;;20.45;12.32;;;0.70;99.90;;;;;;5019679;28;20034;-76
2021/01/09 01:15:47;;;;;;;23.70;13.30;;;0.70;99.90;;;;;;5012474;28;20025;-76
2021/01/09 01:18:12;;;;;;;22.30;13.93;;;0.70;99.90;;;;;;5013957;28;20033;-76
2021/01/09 01:20:38;;;;;;;21.75;12.35;;;0.60;99.90;;;;;;5013923;28;20030;-76
2021/01/09 01:23:03;;;;;;;18.45;11.65;;;0.70;99.90;;;;;;5029536;28;20121;-76
2021/01/09 01:25:29;;;;;;;21.77;11.93;;;0.70;99.90;;;;;;5033236;28;20049;-76
2021/01/09 01:27:54;;;;;;;19.95;13.02;;;0.70;99.90;;;;;;5033276;28;20025;-76
2021/01/09 01:30:20;;;;;;;20.92;12.70;;;0.60;99.90;;;;;;5033530;28;20036;-76
2021/01/09 01:32:46;;;;;;;21.20;11.93;;;0.70;99.90;;;;;;5020103;28;20029;-76
2021/01/09 01:35:11;;;;;;;20.92;12.98;;;0.60;99.90;;;;;;5012173;28;20029;-76
2021/01/09 01:37:37;;;;;;;21.90;13.10;;;0.60;99.90;;;;;;5013537;28;20129;-76
2021/01/09 01:40:05;;;;;;;21.08;12.85;;;0.60;99.90;;;;;;5013490;28;20062;-76
2021/01/09 01:42:30;;;;;;;19.67;12.27;;;0.60;99.90;;;;;;5020008;28;20093;-76
2021/01/09 01:44:56;;;;;;;26.20;12.18;;;0.70;99.90;;;;;;5032958;28;20691;-76
2021/01/09 01:47:22;;;;;;;17.65;11.82;;;0.60;99.90;;;;;;5033214;28;20025;-76
2021/01/09 01:49:49;;;;;;;18.55;11.18;;;0.60;99.90;;;;;;5033081;28;20022;-76
2021/01/09 01:52:16;;;;;;;19.02;11.93;;;0.60;99.90;;;;;;5031559;28;20080;-76
2021/01/09 01:54:44;;;;;;;19.38;11.98;;;0.60;99.90;;;;;;5032650;28;20037;-76
2021/01/09 01:57:12;;;;;;;18.20;11.25;;;0.60;99.90;;;;;;5031545;28;20030;-76
2021/01/09 01:59:41;;;;;;;19.52;11.27;;;0.60;99.90;;;;;;5031623;28;20030;-76
2021/01/09 02:02:12;;;;;;;19.52;11.85;;;0.60;99.90;;;;;;5024831;28;20040;-76
2021/01/09 02:04:39;;;;;;;15.65;10.75;;;0.50;99.90;;;;;;5012835;28;20402;-76
2021/01/09 02:07:18;;;;;;;20.70;12.45;;;0.60;99.90;;;;;;5013088;28;20026;-76
2021/01/09 02:09:52;;;;;;;21.80;11.55;;;0.50;99.90;;;;;;5012925;28;20037;-76
2021/01/09 02:12:25;;;;;;;17.88;11.55;;;0.50;99.90;;;;;;5016154;28;20136;-76
2021/01/09 02:14:53;;;;;;;16.33;11.35;;;0.40;99.90;;;;;;5032485;28;20394;-76
2021/01/09 02:17:20;;;;;;;20.33;11.45;;;0.30;99.90;;;;;;5031367;28;20029;-76
2021/01/09 02:19:46;;;;;;;18.63;11.27;;;0.20;99.90;;;;;;5031394;28;20041;-76
2021/01/09 02:22:14;;;;;;;23.08;12.75;;;0.20;99.90;;;;;;5022142;28;20057;-76
2021/01/09 02:24:40;;;;;;;20.70;11.35;;;0.20;99.90;;;;;;5012402;28;20026;-76
2021/01/09 02:27:06;;;;;;;23.63;11.55;;;0.30;99.90;;;;;;5011520;28;20397;-76
2021/01/09 02:29:36;;;;;;;18.08;11.00;;;0.20;99.90;;;;;;5012681;28;20044;-76
2021/01/09 02:32:09;;;;;;;18.85;11.52;;;0.10;99.90;;;;;;5018197;28;20026;-76
2021/01/09 02:34:44;;;;;;;23.30;12.23;;;0.10;99.90;;;;;;5032086;28;20421;-76
2021/01/09 02:37:11;;;;;;;19.77;12.13;;;-0.10;99.90;;;;;;5020998;28;20037;-76
2021/01/09 02:39:37;;;;;;;16.95;11.02;;;-0.20;99.90;;;;;;5012554;28;20059;-76
2021/01/09 02:42:03;;;;;;;18.50;10.98;;;-0.20;99.90;;;;;;5012479;28;20030;-76
2021/01/09 02:44:30;;;;;;;19.10;11.32;;;-0.30;99.90;;;;;;5012152;28;20030;-76
2021/01/09 02:46:56;;;;;;;17.15;11.75;;;-0.30;99.90;;;;;;5013439;28;20521;-76
2021/01/09 02:49:22;;;;;;;17.77;11.52;;;-0.40;99.90;;;;;;5011077;28;20026;-76
2021/01/09 02:51:47;;;;;;;19.20;11.52;;;-0.40;99.90;;;;;;5012323;28;20360;-76
2021/01/09 02:54:13;;;;;;;19.67;12.02;;;-0.60;99.90;;;;;;5011915;28;20062;-76
2021/01/09 02:56:38;;;;;;;22.15;11.45;;;-0.60;99.90;;;;;;5012284;28;20034;-76
2021/01/09 02:59:04;;;;;;;20.40;11.93;;;-0.60;99.90;;;;;;5029387;28;20033;-76
2021/01/09 03:01:30;;;;;;;24.05;12.23;;;-0.60;99.90;;;;;;5031942;28;20076;-76
2021/01/09 03:03:59;;;;;;;21.27;12.75;;;-0.60;99.90;;;;;;5031600;28;20457;-76
2021/01/09 03:06:25;;;;;;;20.73;11.95;;;-0.60;99.90;;;;;;5027509;28;20419;-76
2021/01/09 03:08:52;;;;;;;24.45;13.25;;;-0.60;99.90;;;;;;5011238;28;20114;-76
2021/01/09 03:11:18;;;;;;;25.23;14.15;;;-0.70;99.90;;;;;;5011850;28;20022;-76
2021/01/09 03:13:44;;;;;;;28.38;12.77;;;-0.70;99.90;;;;;;5011728;28;20049;-76
2021/01/09 03:16:10;;;;;;;25.40;13.35;;;-0.70;99.90;;;;;;5010663;28;20030;-76
2021/01/09 03:18:36;;;;;;;23.17;13.73;;;-0.70;99.90;;;;;;5049148;28;20109;-76
2021/01/09 03:21:02;;;;;;;20.70;12.25;;;-0.80;99.90;;;;;;5051330;28;20449;-76
2021/01/09 03:23:28;;;;;;;19.15;11.23;;;-0.80;99.90;;;;;;5051578;28;20082;-76
2021/01/09 03:25:53;;;;;;;22.17;13.60;;;-0.90;99.90;;;;;;5051289;28;20025;-76
2021/01/09 03:28:19;;;;;;;24.92;13.35;;;-0.80;99.90;;;;;;5035749;28;20822;-76
2021/01/09 03:30:44;;;;;;;23.08;13.10;;;-0.70;99.90;;;;;;5031585;28;20417;-76
2021/01/09 03:33:10;;;;;;;25.98;14.25;;;-0.60;99.90;;;;;;5031574;28;20033;-76
2021/01/09 03:35:35;;;;;;;24.13;13.18;;;-0.50;99.90;;;;;;5031325;28;20027;-76
2021/01/09 03:38:01;;;;;;;24.83;12.73;;;-0.40;99.90;;;;;;5013476;28;20113;-76
2021/01/09 03:40:27;;;;;;;23.80;13.23;;;-0.30;99.90;;;;;;5011954;28;20030;-76
2021/01/09 03:42:53;;;;;;;21.73;12.98;;;-0.30;99.90;;;;;;5011844;28;20026;-76
2021/01/09 03:45:19;;;;;;;25.85;13.98;;;-0.30;99.90;;;;;;5011365;28;20033;-76
2021/01/09 03:47:44;;;;;;;23.88;13.98;;;-0.30;99.90;;;;;;5011530;28;20037;-76
2021/01/09 03:50:10;;;;;;;22.13;12.65;;;-0.30;99.90;;;;;;5010417;28;20136;-76
2021/01/09 03:52:35;;;;;;;22.48;12.25;;;-0.30;99.90;;;;;;5011586;28;20026;-76
2021/01/09 03:55:01;;;;;;;22.40;12.55;;;-0.30;99.90;;;;;;5010149;28;20030;-76
2021/01/09 03:57:27;;;;;;;20.73;12.32;;;-0.30;99.90;;;;;;5017620;28;20075;-76
2021/01/09 03:59:53;;;;;;;23.88;12.77;;;-0.30;99.90;;;;;;5030816;28;20099;-76
2021/01/09 04:02:18;;;;;;;23.75;11.95;;;-0.30;99.90;;;;;;5031328;28;20097;-75
2021/01/09 04:04:44;;;;;;;22.05;11.77;;;-0.30;99.90;;;;;;5030957;28;20037;-76
2021/01/09 04:07:09;;;;;;;21.17;11.60;;;-0.30;99.90;;;;;;5020266;28;20026;-76
2021/01/09 04:09:35;;;;;;;19.00;11.32;;;-0.30;99.90;;;;;;5011572;28;20026;-76
2021/01/09 04:12:01;;;;;;;22.80;12.38;;;-0.30;99.90;;;;;;5011632;28;20022;-76
2021/01/09 04:14:26;;;;;;;20.33;12.43;;;-0.40;99.90;;;;;;5010000;28;20626;-76
2021/01/09 04:16:52;;;;;;;21.02;12.73;;;-0.50;99.90;;;;;;5015509;28;20029;-76
2021/01/09 04:19:18;;;;;;;23.48;12.23;;;-0.50;99.90;;;;;;5031233;28;20029;-76
2021/01/09 04:21:44;;;;;;;19.77;12.57;;;-0.50;99.90;;;;;;5031024;28;20053;-75
2021/01/09 04:24:10;;;;;;;23.40;13.85;;;-0.50;99.90;;;;;;5030810;28;20032;-76
2021/01/09 04:26:35;;;;;;;21.75;12.65;;;-0.40;99.90;;;;;;5034664;28;20025;-76
2021/01/09 04:29:01;;;;;;;24.30;12.63;;;-0.40;99.90;;;;;;5015394;28;20022;-76
2021/01/09 04:31:27;;;;;;;25.80;13.45;;;-0.40;99.90;;;;;;5014876;28;20092;-76
2021/01/09 04:33:52;;;;;;;21.65;12.32;;;-0.30;99.90;;;;;;5014763;28;20022;-76
2021/01/09 04:36:18;;;;;;;25.55;12.80;;;-0.30;99.90;;;;;;5016944;28;20038;-76
2021/01/09 04:38:43;;;;;;;21.25;12.73;;;-0.30;99.90;;;;;;5033432;28;20030;-76
2021/01/09 04:41:09;;;;;;;26.20;12.38;;;-0.30;99.90;;;;;;5034458;28;20397;-76
2021/01/09 04:43:35;;;;;;;23.02;13.75;;;-0.30;99.90;;;;;;5034431;28;20029;-76
2021/01/09 04:46:01;;;;;;;23.17;13.13;;;-0.20;99.90;;;;;;5034177;28;20029;-76
2021/01/09 04:48:27;;;;;;;19.98;12.65;;;-0.20;99.90;;;;;;5032735;28;20029;-76
2021/01/09 04:50:53;;;;;;;21.30;12.73;;;-0.10;99.90;;;;;;5034283;28;20028;-76
2021/01/09 04:53:21;;;;;;;24.38;13.45;;;-0.10;99.90;;;;;;5033668;28;20038;-76
2021/01/09 04:55:47;;;;;;;25.52;14.00;;;-0.10;99.90;;;;;;5033972;28;20041;-76
2021/01/09 04:58:14;;;;;;;23.52;14.13;;;0.00;99.90;;;;;;5021257;28;20141;-76
2021/01/09 05:00:40;;;;;;;20.98;11.95;;;-0.10;99.90;;;;;;5014395;28;20105;-76
2021/01/09 05:03:05;;;;;;;23.17;13.02;;;0.00;99.90;;;;;;5014291;28;20025;-76
2021/01/09 05:05:31;;;;;;;24.00;13.20;;;0.00;99.90;;;;;;5013923;28;20061;-76
2021/01/09 05:07:56;;;;;;;20.55;13.48;;;0.00;99.90;;;;;;5028761;28;20037;-76
2021/01/09 05:10:23;;;;;;;21.90;13.32;;;0.00;99.90;;;;;;5032711;28;20437;-76
2021/01/09 05:12:48;;;;;;;22.02;13.00;;;0.10;99.90;;;;;;5033915;28;20121;-76
2021/01/09 05:15:14;;;;;;;22.35;12.80;;;0.10;99.90;;;;;;5033551;28;20053;-76
2021/01/09 05:17:40;;;;;;;23.88;14.10;;;0.10;99.90;;;;;;5022808;28;20419;-76
2021/01/09 05:20:09;;;;;;;21.48;14.02;;;0.20;99.90;;;;;;5013990;28;20101;-76
2021/01/09 05:22:38;;;;;;;27.65;13.93;;;0.20;99.90;;;;;;5013952;28;20026;-76
2021/01/09 05:25:06;;;;;;;19.88;11.65;;;0.30;99.90;;;;;;5013537;28;20037;-76
2021/01/09 05:27:34;;;;;;;22.63;13.18;;;0.30;99.90;;;;;;5020234;28;20021;-75
2021/01/09 05:29:59;;;;;;;24.92;13.38;;;0.30;99.90;;;;;;5032337;28;20363;-76
2021/01/09 05:32:25;;;;;;;28.73;13.27;;;0.30;99.90;;;;;;5033533;28;20079;-76
2021/01/09 05:34:54;;;;;;;23.60;13.52;;;0.20;99.90;;;;;;5033195;28;20121;-76
2021/01/09 05:37:22;;;;;;;27.33;14.45;;;0.30;99.90;;;;;;5022241;28;20038;-75
2021/01/09 05:39:52;;;;;;;29.55;14.98;;;0.30;99.90;;;;;;5013688;28;20033;-76
2021/01/09 05:42:27;;;;;;;28.02;15.80;;;0.30;99.90;;;;;;5013500;28;20482;-76
2021/01/09 05:44:55;;;;;;;29.85;15.93;;;0.40;99.90;;;;;;5012053;28;20068;-76
2021/01/09 05:47:25;;;;;;;33.75;16.40;;;0.40;99.90;;;;;;5013284;28;20045;-76
2021/01/09 05:49:52;;;;;;;33.67;15.68;;;0.40;99.90;;;;;;5013332;28;20030;-76
2021/01/09 05:52:18;;;;;;;31.83;15.25;;;0.50;99.90;;;;;;5012149;28;20152;-76
2021/01/09 05:54:43;;;;;;;33.28;16.35;;;0.50;99.90;;;;;;5012882;28;20548;-76
2021/01/09 05:57:16;;;;;;;39.42;17.05;;;0.40;99.90;;;;;;5016626;28;20087;-76
2021/01/09 05:59:46;;;;;;;31.95;14.82;;;0.40;99.90;;;;;;5033124;28;20025;-76
2021/01/09 06:02:12;;;;;;;33.03;15.55;;;0.40;99.90;;;;;;5031690;28;20033;-76
2021/01/09 06:04:44;;;;;;;29.30;15.45;;;0.50;99.90;;;;;;5031352;28;20548;-76
2021/01/09 06:07:20;;;;;;;35.00;16.88;;;0.50;99.90;;;;;;5022978;28;20018;-76
2021/01/09 06:10:15;;;;;;;31.42;17.42;;;0.40;99.90;;;;;;5013070;28;20022;-76
2021/01/09 06:13:00;;;;;;;30.25;13.80;;;0.50;99.90;;;;;;5013117;28;20026;-76
2021/01/09 06:15:29;;;;;;;34.83;16.27;;;0.50;99.90;;;;;;5011382;28;20083;-76
2021/01/09 06:17:55;;;;;;;33.50;15.52;;;0.50;99.90;;;;;;5025374;28;20036;-76
2021/01/09 06:20:21;;;;;;;34.35;16.77;;;0.50;99.90;;;;;;5032657;28;20482;-76
2021/01/09 06:22:47;;;;;;;33.13;14.70;;;0.50;99.90;;;;;;5032276;28;20481;-76
2021/01/09 06:25:13;;;;;;;29.05;15.35;;;0.60;99.90;;;;;;5032253;28;20025;-76
2021/01/09 06:27:43;;;;;;;33.33;15.50;;;0.50;99.90;;;;;;5023284;28;20025;-76
2021/01/09 06:30:10;;;;;;;31.38;16.33;;;0.50;99.90;;;;;;5011407;28;20026;-76
2021/01/09 06:32:40;;;;;;;38.42;21.48;;;0.50;99.90;;;;;;5012675;28;20025;-76
2021/01/09 06:35:08;;;;;;;48.70;27.33;;;0.50;99.90;;;;;;5011158;28;20445;-76
2021/01/09 06:37:34;;;;;;;52.58;26.90;;;0.50;99.90;;;;;;5038233;28;20036;-76
2021/01/09 06:40:01;;;;;;;78.15;47.38;;;0.50;99.90;;;;;;5052268;28;20484;-76
2021/01/09 06:42:27;;;;;;;57.95;38.35;;;0.50;99.90;;;;;;5032005;28;20026;-75
2021/01/09 06:44:54;;;;;;;40.47;26.33;;;0.50;99.90;;;;;;5029258;28;20029;-76
2021/01/09 06:47:37;;;;;;;80.47;30.77;;;0.60;99.90;;;;;;5027642;28;20022;-75
2021/01/09 06:50:31;;;;;;;60.53;26.33;;;0.50;99.90;;;;;;5010411;28;20068;-76
2021/01/09 06:52:57;;;;;;;39.23;18.23;;;0.50;99.90;;;;;;5011934;28;20108;-76
2021/01/09 06:55:38;;;;;;;35.03;17.40;;;0.50;99.90;;;;;;5011773;28;20037;-76
2021/01/09 06:58:14;;;;;;;68.35;36.10;;;0.60;99.90;;;;;;5022743;28;20116;-76
2021/01/09 07:00:39;;;;;;;72.20;36.45;;;0.60;99.90;;;;;;5018908;28;20030;-75
2021/01/09 07:03:12;;;;;;;53.90;28.10;;;0.60;99.90;;;;;;5011924;28;20506;-76
2021/01/09 07:05:50;;;;;;;76.32;36.75;;;0.60;99.90;;;;;;5014572;28;20035;-75
2021/01/09 07:08:27;;;;;;;63.38;32.25;;;0.60;99.90;;;;;;5030016;28;20030;-75
2021/01/09 07:10:58;;;;;;;55.55;27.88;;;0.60;99.90;;;;;;5018433;28;20030;-76
2021/01/09 07:13:25;;;;;;;51.90;23.75;;;0.60;99.90;;;;;;5010680;28;20402;-76
2021/01/09 07:16:07;;;;;;;80.32;43.90;;;0.60;99.90;;;;;;5011584;28;20069;-76
2021/01/09 07:18:37;;;;;;;72.28;35.15;;;0.60;99.90;;;;;;5011946;28;20033;-76
2021/01/09 07:21:05;;;;;;;61.75;33.50;;;0.60;99.90;;;;;;5020730;28;20025;-76
2021/01/09 07:23:34;;;;;;;64.75;31.88;;;0.60;99.90;;;;;;5031643;28;20501;-76
2021/01/09 07:26:01;;;;;;;73.75;39.28;;;0.70;99.90;;;;;;5031384;28;20033;-77
2021/01/09 07:28:31;;;;;;;80.18;37.13;;;0.70;99.90;;;;;;5030618;28;20091;-76
2021/01/09 07:31:05;;;;;;;78.47;42.72;;;0.60;99.90;;;;;;5024520;28;20213;-76
2021/01/09 07:33:32;;;;;;;53.38;28.88;;;0.60;99.90;;;;;;5011876;28;20037;-76
2021/01/09 07:35:58;;;;;;;43.60;23.35;;;0.70;99.90;;;;;;5011520;28;20037;-76
2021/01/09 07:38:24;;;;;;;50.17;24.77;;;0.70;99.90;;;;;;5030999;28;20025;-76
2021/01/09 07:41:00;;;;;;;42.03;22.77;;;0.70;99.90;;;;;;5029555;28;20600;-76
2021/01/09 07:43:44;;;;;;;47.10;20.48;;;0.70;99.90;;;;;;5031570;28;20529;-76
2021/01/09 07:46:27;;;;;;;56.53;25.90;;;0.60;99.90;;;;;;5030157;28;20108;-76
2021/01/09 07:49:01;;;;;;;83.47;28.43;;;0.70;99.90;;;;;;5030233;28;20075;-76
2021/01/09 07:51:52;;;;;;;43.92;20.13;;;0.80;99.90;;;;;;5024449;28;20022;-75
2021/01/09 07:54:47;;;;;;;41.03;19.90;;;0.80;99.90;;;;;;5030822;28;20043;-76
2021/01/09 07:57:19;;;;;;;38.55;17.58;;;0.80;99.90;;;;;;5013142;28;20091;-75
2021/01/09 08:00:00;;;;;;;35.72;17.23;;;0.80;99.90;;;;;;5032966;28;20036;-76
2021/01/09 08:02:33;;;;;;;39.42;17.88;;;0.80;99.90;;;;;;5033202;28;20049;-76
2021/01/09 08:05:05;;;;;;;37.87;18.90;;;0.80;99.90;;;;;;5033390;28;20029;-76
2021/01/09 08:07:31;;;;;;;36.95;18.92;;;0.80;99.90;;;;;;5034773;28;20078;-75
2021/01/09 08:09:58;;;;;;;44.13;19.88;;;0.80;99.90;;;;;;5021692;28;20101;-76
2021/01/09 08:12:29;;;;;;;53.33;28.58;;;0.80;99.90;;;;;;5017423;28;20063;-76
2021/01/09 08:14:58;;;;;;;52.13;26.48;;;0.90;99.90;;;;;;5034618;28;20032;-75
2021/01/09 08:17:23;;;;;;;102.43;50.10;;;0.90;99.90;;;;;;5034867;28;20389;-76
2021/01/09 08:19:49;;;;;;;74.55;36.17;;;0.90;99.90;;;;;;5033621;28;20029;-76
2021/01/09 08:22:15;;;;;;;58.15;27.35;;;0.90;99.90;;;;;;5034105;28;20038;-76
2021/01/09 08:24:41;;;;;;;64.93;30.85;;;1.00;99.90;;;;;;5033063;28;20111;-77
2021/01/09 08:27:07;;;;;;;49.20;24.52;;;1.00;99.90;;;;;;5034733;28;20053;-76
2021/01/09 08:29:33;;;;;;;87.85;37.15;;;1.00;99.90;;;;;;5033091;28;20516;-75
2021/01/09 08:31:59;;;;;;;139.38;56.05;;;1.00;99.90;;;;;;5028122;28;20026;-76
2021/01/09 08:34:25;;;;;;;98.78;50.42;;;0.90;99.90;;;;;;5014371;28;20037;-75
2021/01/09 08:36:57;;;;;;;54.80;28.55;;;1.00;99.90;;;;;;5013488;28;20036;-75
2021/01/09 08:39:23;;;;;;;82.03;38.15;;;1.00;99.90;;;;;;5013247;28;20032;-76
2021/01/09 08:41:50;;;;;;;86.40;39.13;;;1.00;99.90;;;;;;5013517;28;20397;-76
2021/01/09 08:44:15;;;;;;;46.65;24.60;;;1.00;99.90;;;;;;5015860;28;20022;-76
2021/01/09 08:46:43;;;;;;;46.40;21.75;;;1.00;99.90;;;;;;5014485;28;20122;-76
2021/01/09 08:49:24;;;;;;;40.95;18.98;;;1.00;99.90;;;;;;5014631;28;20425;-76
2021/01/09 08:52:04;;;;;;;222.52;77.47;;;1.10;99.90;;;;;;5020510;28;20104;-77
2021/01/09 08:54:30;;;;;;;85.07;31.92;;;1.10;99.90;;;;;;5033861;28;20040;-76
2021/01/09 08:56:57;;;;;;;104.75;41.90;;;1.10;99.90;;;;;;5030923;28;20774;-76
2021/01/09 08:59:23;;;;;;;163.45;62.75;;;1.10;99.90;;;;;;5032613;28;20032;-76
2021/01/09 09:01:51;;;;;;;149.07;55.15;;;1.10;99.90;;;;;;5034179;28;20393;-76
2021/01/09 09:04:19;;;;;;;131.18;49.65;;;1.10;99.90;;;;;;5033264;28;20026;-76
2021/01/09 09:06:45;;;;;;;66.10;30.30;;;1.10;99.90;;;;;;5032597;28;20112;-76
2021/01/09 09:09:15;;;;;;;47.95;21.55;;;1.10;99.90;;;;;;5033654;28;20027;-76
2021/01/09 09:11:48;;;;;;;33.40;17.73;;;1.20;99.90;;;;;;5031699;28;20040;-77
2021/01/09 09:14:14;;;;;;;39.38;20.70;;;1.20;99.90;;;;;;5032643;28;20497;-77
2021/01/09 09:16:40;;;;;;;32.08;16.38;;;1.20;99.90;;;;;;5053408;28;20036;-76
2021/01/09 09:19:12;;;;;;;84.18;30.33;;;1.20;99.90;;;;;;5036342;28;20032;-76
2021/01/09 09:21:44;;;;;;;52.17;24.80;;;1.20;99.90;;;;;;5032146;28;20030;-75
2021/01/09 09:24:15;;;;;;;50.70;25.42;;;1.20;99.90;;;;;;5032307;28;20033;-76
2021/01/09 09:26:44;;;;;;;96.45;39.20;;;1.30;99.90;;;;;;5033503;28;20542;-76
2021/01/09 09:29:13;;;;;;;46.60;22.85;;;1.30;99.90;;;;;;5033445;28;20398;-77
2021/01/09 09:31:43;;;;;;;82.68;36.63;;;1.30;99.90;;;;;;5014066;28;20014;-76
2021/01/09 09:34:11;;;;;;;111.07;43.42;;;1.40;99.90;;;;;;5019731;28;20040;-76
2021/01/09 09:37:00;;;;;;;73.55;33.03;;;1.40;99.90;;;;;;5031908;28;20082;-74
2021/01/09 09:39:26;;;;;;;46.53;22.35;;;1.40;99.90;;;;;;5022930;28;20116;-76
2021/01/09 09:42:00;;;;;;;72.63;33.65;;;1.50;99.90;;;;;;5032988;28;20029;-76
2021/01/09 09:44:41;;;;;;;93.45;37.35;;;1.50;99.90;;;;;;5031254;28;20083;-76
2021/01/09 09:47:09;;;;;;;63.17;26.80;;;1.40;99.90;;;;;;5033286;28;20021;-76
2021/01/09 09:49:36;;;;;;;94.63;37.75;;;1.40;99.90;;;;;;5025185;28;20105;-76
2021/01/09 09:52:14;;;;;;;104.80;39.08;;;1.50;99.90;;;;;;5031691;28;20695;-76
2021/01/09 09:54:40;;;;;;;99.55;36.17;;;1.50;99.90;;;;;;5032127;28;20540;-76
2021/01/09 09:57:05;;;;;;;134.90;49.65;;;1.60;99.90;;;;;;5032257;28;20036;-76
2021/01/09 09:59:31;;;;;;;52.72;25.35;;;1.50;99.90;;;;;;5031343;28;20576;-76
2021/01/09 10:02:01;;;;;;;87.07;35.30;;;1.50;99.90;;;;;;5032811;28;20057;-77
2021/01/09 10:04:28;;;;;;;102.90;41.33;;;1.50;99.90;;;;;;5032344;28;20077;-76
2021/01/09 10:06:54;;;;;;;91.75;37.22;;;1.50;99.90;;;;;;5031939;28;20040;-76
2021/01/09 10:09:22;;;;;;;133.88;49.25;;;1.50;99.90;;;;;;5032455;28;20105;-75
2021/01/09 10:11:49;;;;;;;101.90;41.13;;;1.60;99.90;;;;;;5030595;28;20029;-75
2021/01/09 10:14:15;;;;;;;69.90;27.45;;;1.60;99.90;;;;;;5032498;28;20470;-76
2021/01/09 10:16:41;;;;;;;52.63;24.33;;;1.60;99.90;;;;;;5032207;28;20108;-76
2021/01/09 10:19:10;;;;;;;65.75;27.23;;;1.60;99.90;;;;;;5031946;28;20533;-76
2021/01/09 10:21:36;;;;;;;112.20;43.33;;;1.60;99.90;;;;;;5031821;28;20032;-75
2021/01/09 10:24:02;;;;;;;61.13;29.10;;;1.70;99.90;;;;;;5029946;28;20072;-75
2021/01/09 10:26:33;;;;;;;61.25;26.13;;;1.80;99.90;;;;;;5031932;28;20413;-75
2021/01/09 10:29:00;;;;;;;98.68;38.30;;;1.80;99.90;;;;;;5031820;28;20491;-76
2021/01/09 10:31:29;;;;;;;90.47;33.03;;;1.80;99.90;;;;;;5030968;28;20056;-76
2021/01/09 10:33:55;;;;;;;90.88;37.80;;;1.80;99.90;;;;;;5031896;28;20083;-76
2021/01/09 10:36:30;;;;;;;60.45;28.27;;;1.70;99.90;;;;;;5031064;28;20029;-75
2021/01/09 10:38:56;;;;;;;88.18;35.70;;;1.70;99.90;;;;;;5032348;28;20513;-76
2021/01/09 10:41:22;;;;;;;53.88;25.73;;;1.80;99.90;;;;;;5032114;28;20022;-76
2021/01/09 10:43:49;;;;;;;68.25;28.80;;;1.80;99.90;;;;;;5030719;28;20043;-76
2021/01/09 10:46:22;;;;;;;75.80;31.23;;;1.80;99.90;;;;;;5031739;28;20022;-76
2021/01/09 10:48:48;;;;;;;;;;;1.70;99.90;;;;;;5032029;28;20018;-75
2021/01/09 10:51:18;;;;;;;89.70;37.88;;;1.70;99.90;;;;;;5032036;28;20300;-76
2021/01/09 10:53:44;;;;;;;55.85;24.42;;;1.80;99.90;;;;;;5031923;28;20525;-76
2021/01/09 10:56:10;;;;;;;48.58;22.70;;;1.80;99.90;;;;;;5031613;28;20502;-75
2021/01/09 10:58:36;;;;;;;69.18;29.98;;;1.80;99.90;;;;;;5030612;28;20064;-76
2021/01/09 11:01:03;;;;;;;112.45;44.08;;;1.90;99.90;;;;;;5031894;28;20100;-76
2021/01/09 11:03:29;;;;;;;81.85;39.03;;;1.80;99.90;;;;;;5031993;28;20021;-76
2021/01/09 11:05:54;;;;;;;70.75;29.20;;;1.90;99.90;;;;;;5031152;28;20170;-76
2021/01/09 11:08:20;;;;;;;52.80;22.23;;;1.90;99.90;;;;;;5030464;28;20102;-76
2021/01/09 11:10:45;;;;;;;99.32;37.80;;;2.00;99.90;;;;;;5031857;28;20036;-76
2021/01/09 11:13:11;;;;;;;61.70;28.38;;;2.00;99.90;;;;;;5031722;28;20045;-76
2021/01/09 11:15:41;;;;;;;42.25;22.08;;;2.00;99.90;;;;;;5029804;28;20036;-76
2021/01/09 11:18:07;;;;;;;61.13;27.30;;;2.00;99.90;;;;;;5031604;28;20108;-76
2021/01/09 11:20:33;;;;;;;93.32;39.53;;;2.00;99.90;;;;;;5031492;28;20057;-76
2021/01/09 11:22:58;;;;;;;43.67;21.10;;;2.10;99.90;;;;;;5031673;28;20443;-76
2021/01/09 11:25:24;;;;;;;66.43;29.95;;;2.10;99.90;;;;;;5031020;28;20710;-76
2021/01/09 11:27:49;;;;;;;99.93;38.97;;;2.10;99.90;;;;;;5030222;28;20160;-76
2021/01/09 11:30:15;;;;;;;46.83;23.88;;;2.10;99.90;;;;;;5031573;28;20045;-76
2021/01/09 11:32:41;;;;;;;117.00;42.33;;;2.10;99.90;;;;;;5032006;28;20033;-76
2021/01/09 11:35:07;;;;;;;45.88;22.17;;;2.20;99.90;;;;;;5035094;28;20033;-76
2021/01/09 11:37:32;;;;;;;36.05;20.08;;;2.20;99.90;;;;;;5034445;28;20026;-76
2021/01/09 11:39:58;;;;;;;39.75;20.40;;;2.10;99.90;;;;;;5035662;28;20660;-76
2021/01/09 11:42:24;;;;;;;72.88;32.53;;;2.20;99.90;;;;;;5035361;28;20029;-76
2021/01/09 11:44:49;;;;;;;56.90;25.65;;;2.20;99.90;;;;;;5034920;28;20053;-76
2021/01/09 11:47:15;;;;;;;80.80;35.15;;;2.20;99.90;;;;;;5034252;28;20029;-76
2021/01/09 11:49:41;;;;;;;49.30;21.15;;;2.20;99.90;;;;;;5035307;28;20026;-76
2021/01/09 11:52:07;;;;;;;82.28;33.15;;;2.20;99.90;;;;;;5035401;28;20021;-76
2021/01/09 11:54:33;;;;;;;54.97;25.50;;;2.20;99.90;;;;;;5034813;28;20065;-76
2021/01/09 11:57:00;;;;;;;104.15;41.88;;;2.20;99.90;;;;;;5034227;28;20029;-76
2021/01/09 11:59:26;;;;;;;96.78;38.47;;;2.20;99.90;;;;;;5034041;28;20033;-76
2021/01/09 12:01:51;;;;;;;41.83;21.70;;;2.20;99.90;;;;;;5033918;28;20551;-76
2021/01/09 12:04:17;;;;;;;44.78;22.23;;;2.30;99.90;;;;;;5034743;28;20439;-76
2021/01/09 12:06:42;;;;;;;58.13;27.13;;;2.40;99.90;;;;;;5035023;28;20052;-75
2021/01/09 12:09:08;;;;;;;99.43;44.70;;;2.40;99.90;;;;;;5035093;28;20052;-76
2021/01/09 12:11:34;;;;;;;44.33;22.73;;;2.40;99.90;;;;;;5034899;28;20509;-76
2021/01/09 12:14:00;;;;;;;66.13;32.45;;;2.40;99.90;;;;;;5034761;28;20127;-76
2021/01/09 12:16:33;;;;;;;52.58;26.90;;;2.40;99.90;;;;;;5034704;28;20025;-76
2021/01/09 12:18:59;;;;;;;45.35;23.75;;;2.40;99.90;;;;;;5033645;28;20022;-76
2021/01/09 12:21:29;;;;;;;36.50;19.55;;;2.50;99.90;;;;;;5034888;28;20037;-76
2021/01/09 12:23:56;;;;;;;46.88;20.13;;;2.50;99.90;;;;;;5034552;28;20477;-76
2021/01/09 12:26:22;;;;;;;55.53;27.80;;;2.50;99.90;;;;;;5034326;28;20022;-76
2021/01/09 12:28:48;;;;;;;64.95;26.58;;;2.40;99.90;;;;;;5033497;28;20025;-76
2021/01/09 12:31:13;;;;;;;53.47;25.10;;;2.50;99.90;;;;;;5034659;28;20032;-76
2021/01/09 12:33:40;;;;;;;45.38;21.27;;;2.50;99.90;;;;;;5033064;28;20155;-76
2021/01/09 12:36:08;;;;;;;41.70;21.40;;;2.50;99.90;;;;;;5032829;28;20037;-76
2021/01/09 12:38:33;;;;;;;44.50;20.58;;;2.50;99.90;;;;;;5033225;28;20528;-76